sensor_id;sensor_type;location;lat;lon;timestamp;P1;durP1;ratioP1;P2;durP2;ratioP2
63690;SDS011;49837;57.280;27.070;2023-05-18T00:00:30;8.5;;;3.1;;
63690;SDS011;49837;57.280;27.070;2023-05-18T00:01:30;10.4;;;2.6;;
63690;SDS011;49837;57.280;27.070;2023-05-18T00:02:31;11.9;;;3.0;;
63690;SDS011;49837;57.280;27.070;2023-05-18T00:03:32;10.7;;;3.2;;
63690;SDS011;49837;57.280;27.070;2023-05-18T00:04:32;11.1;;;3.0;;
63690;SDS011;49837;57.280;27.070;2023-05-18T00:05:32;13.0;;;3.2;;
63690;SDS011;49837;57.280;27.070;2023-05-18T00:06:32;11.8;;;2.7;;
63690;SDS011;49837;57.280;27.070;2023-05-18T00:07:33;12.0;;;2.8;;
63690;SDS011;49837;57.280;27.070;2023-05-18T00:08:33;14.0;;;3.1;;
63690;SDS011;49837;57.280;27.070;2023-05-18T00:09:34;12.5;;;2.7;;
63690;SDS011;49837;57.280;27.070;2023-05-18T00:10:34;8.7;;;2.6;;
63690;SDS011;49837;57.280;27.070;2023-05-18T00:11:34;9.3;;;3.2;;
63690;SDS011;49837;57.280;27.070;2023-05-18T00:12:35;10.3;;;2.7;;
63690;SDS011;49837;57.280;27.070;2023-05-18T00:13:35;8.9;;;2.9;;
63690;SDS011;49837;57.280;27.070;2023-05-18T00:14:35;11.9;;;3.2;;
63690;SDS011;49837;57.280;27.070;2023-05-18T00:15:36;9.6;;;2.6;;
63690;SDS011;49837;57.280;27.070;2023-05-18T00:16:36;10.1;;;2.8;;
63690;SDS011;49837;57.280;27.070;2023-05-18T00:17:37;8.0;;;2.8;;
63690;SDS011;49837;57.280;27.070;2023-05-18T00:18:37;8.6;;;2.6;;
63690;SDS011;49837;57.280;27.070;2023-05-18T00:19:37;14.6;;;2.7;;
63690;SDS011;49837;57.280;27.070;2023-05-18T00:20:38;14.6;;;3.3;;
63690;SDS011;49837;57.280;27.070;2023-05-18T00:21:38;12.4;;;2.7;;
63690;SDS011;49837;57.280;27.070;2023-05-18T00:22:39;9.7;;;2.6;;
63690;SDS011;49837;57.280;27.070;2023-05-18T00:23:39;9.6;;;2.6;;
63690;SDS011;49837;57.280;27.070;2023-05-18T00:24:39;10.0;;;2.7;;
63690;SDS011;49837;57.280;27.070;2023-05-18T00:25:40;8.8;;;2.5;;
63690;SDS011;49837;57.280;27.070;2023-05-18T00:26:41;10.1;;;2.5;;
63690;SDS011;49837;57.280;27.070;2023-05-18T00:27:41;13.4;;;2.6;;
63690;SDS011;49837;57.280;27.070;2023-05-18T00:28:41;9.7;;;2.7;;
63690;SDS011;49837;57.280;27.070;2023-05-18T00:29:44;8.4;;;2.4;;
63690;SDS011;49837;57.280;27.070;2023-05-18T00:30:42;10.0;;;2.6;;
63690;SDS011;49837;57.280;27.070;2023-05-18T00:31:42;11.2;;;2.4;;
63690;SDS011;49837;57.280;27.070;2023-05-18T00:32:43;8.1;;;2.4;;
63690;SDS011;49837;57.280;27.070;2023-05-18T00:33:43;9.7;;;2.5;;
63690;SDS011;49837;57.280;27.070;2023-05-18T00:34:43;11.1;;;2.6;;
63690;SDS011;49837;57.280;27.070;2023-05-18T00:35:44;10.4;;;2.6;;
63690;SDS011;49837;57.280;27.070;2023-05-18T00:36:44;11.3;;;2.7;;
63690;SDS011;49837;57.280;27.070;2023-05-18T00:37:44;11.2;;;2.9;;
63690;SDS011;49837;57.280;27.070;2023-05-18T00:38:45;9.6;;;2.8;;
63690;SDS011;49837;57.280;27.070;2023-05-18T00:39:45;14.0;;;3.1;;
63690;SDS011;49837;57.280;27.070;2023-05-18T00:40:46;11.7;;;3.1;;
63690;SDS011;49837;57.280;27.070;2023-05-18T00:41:46;8.2;;;2.5;;
63690;SDS011;49837;57.280;27.070;2023-05-18T00:42:46;12.6;;;3.1;;
63690;SDS011;49837;57.280;27.070;2023-05-18T00:43:47;11.2;;;2.8;;
63690;SDS011;49837;57.280;27.070;2023-05-18T00:44:47;11.2;;;2.8;;
63690;SDS011;49837;57.280;27.070;2023-05-18T00:45:47;11.4;;;2.5;;
63690;SDS011;49837;57.280;27.070;2023-05-18T00:46:48;11.3;;;2.6;;
63690;SDS011;49837;57.280;27.070;2023-05-18T00:47:48;9.9;;;2.6;;
63690;SDS011;49837;57.280;27.070;2023-05-18T00:48:50;8.0;;;2.4;;
63690;SDS011;49837;57.280;27.070;2023-05-18T00:49:50;13.2;;;3.0;;
63690;SDS011;49837;57.280;27.070;2023-05-18T00:50:50;9.5;;;2.8;;
63690;SDS011;49837;57.280;27.070;2023-05-18T00:51:50;9.0;;;2.4;;
63690;SDS011;49837;57.280;27.070;2023-05-18T00:52:51;11.8;;;2.5;;
63690;SDS011;49837;57.280;27.070;2023-05-18T00:53:52;9.9;;;2.8;;
63690;SDS011;49837;57.280;27.070;2023-05-18T00:54:52;8.9;;;2.8;;
63690;SDS011;49837;57.280;27.070;2023-05-18T00:55:52;9.3;;;2.6;;
63690;SDS011;49837;57.280;27.070;2023-05-18T00:56:52;7.6;;;2.4;;
63690;SDS011;49837;57.280;27.070;2023-05-18T00:57:53;12.1;;;2.4;;
63690;SDS011;49837;57.280;27.070;2023-05-18T00:58:53;12.5;;;3.1;;
63690;SDS011;49837;57.280;27.070;2023-05-18T01:00:59;13.7;;;2.6;;
63690;SDS011;49837;57.280;27.070;2023-05-18T01:01:59;11.1;;;2.4;;
63690;SDS011;49837;57.280;27.070;2023-05-18T01:02:59;12.8;;;2.5;;
63690;SDS011;49837;57.280;27.070;2023-05-18T01:04:00;14.8;;;2.9;;
63690;SDS011;49837;57.280;27.070;2023-05-18T01:05:00;8.9;;;2.2;;
63690;SDS011;49837;57.280;27.070;2023-05-18T01:06:01;10.9;;;2.8;;
63690;SDS011;49837;57.280;27.070;2023-05-18T01:07:01;12.6;;;2.4;;
63690;SDS011;49837;57.280;27.070;2023-05-18T01:08:02;11.8;;;2.6;;
63690;SDS011;49837;57.280;27.070;2023-05-18T01:09:03;8.3;;;2.3;;
63690;SDS011;49837;57.280;27.070;2023-05-18T01:10:03;15.4;;;3.2;;
63690;SDS011;49837;57.280;27.070;2023-05-18T01:11:09;11.6;;;2.3;;
63690;SDS011;49837;57.280;27.070;2023-05-18T01:12:10;10.6;;;2.5;;
63690;SDS011;49837;57.280;27.070;2023-05-18T01:13:12;10.1;;;2.3;;
63690;SDS011;49837;57.280;27.070;2023-05-18T01:14:15;9.6;;;2.8;;
63690;SDS011;49837;57.280;27.070;2023-05-18T01:15:25;12.1;;;3.6;;
63690;SDS011;49837;57.280;27.070;2023-05-18T01:16:21;12.2;;;2.7;;
63690;SDS011;49837;57.280;27.070;2023-05-18T01:17:37;10.7;;;2.8;;
63690;SDS011;49837;57.280;27.070;2023-05-18T01:18:43;8.5;;;2.3;;
63690;SDS011;49837;57.280;27.070;2023-05-18T01:19:35;10.8;;;2.9;;
63690;SDS011;49837;57.280;27.070;2023-05-18T01:20:46;13.2;;;2.8;;
63690;SDS011;49837;57.280;27.070;2023-05-18T01:24:37;13.0;;;2.7;;
63690;SDS011;49837;57.280;27.070;2023-05-18T01:25:45;12.5;;;3.1;;
63690;SDS011;49837;57.280;27.070;2023-05-18T01:26:40;10.6;;;2.4;;
63690;SDS011;49837;57.280;27.070;2023-05-18T01:27:44;10.5;;;2.9;;
63690;SDS011;49837;57.280;27.070;2023-05-18T01:28:45;10.8;;;2.6;;
63690;SDS011;49837;57.280;27.070;2023-05-18T01:29:45;12.4;;;2.7;;
63690;SDS011;49837;57.280;27.070;2023-05-18T01:30:45;10.4;;;2.5;;
63690;SDS011;49837;57.280;27.070;2023-05-18T01:31:46;9.0;;;2.4;;
63690;SDS011;49837;57.280;27.070;2023-05-18T01:32:47;15.2;;;2.9;;
63690;SDS011;49837;57.280;27.070;2023-05-18T01:33:47;11.1;;;2.3;;
63690;SDS011;49837;57.280;27.070;2023-05-18T01:34:47;11.1;;;2.5;;
63690;SDS011;49837;57.280;27.070;2023-05-18T01:35:47;12.7;;;2.9;;
63690;SDS011;49837;57.280;27.070;2023-05-18T01:36:48;11.1;;;2.7;;
63690;SDS011;49837;57.280;27.070;2023-05-18T01:37:48;12.7;;;2.9;;
63690;SDS011;49837;57.280;27.070;2023-05-18T01:38:49;11.6;;;2.8;;
63690;SDS011;49837;57.280;27.070;2023-05-18T01:39:49;9.2;;;2.4;;
63690;SDS011;49837;57.280;27.070;2023-05-18T01:41:07;7.9;;;2.6;;
63690;SDS011;49837;57.280;27.070;2023-05-18T01:41:54;7.7;;;2.2;;
63690;SDS011;49837;57.280;27.070;2023-05-18T01:42:55;9.6;;;3.1;;
63690;SDS011;49837;57.280;27.070;2023-05-18T01:44:03;9.1;;;2.2;;
63690;SDS011;49837;57.280;27.070;2023-05-18T01:45:02;7.8;;;2.5;;
63690;SDS011;49837;57.280;27.070;2023-05-18T01:47:13;10.7;;;2.6;;
63690;SDS011;49837;57.280;27.070;2023-05-18T01:48:10;10.4;;;2.4;;
63690;SDS011;49837;57.280;27.070;2023-05-18T01:49:17;9.4;;;2.5;;
63690;SDS011;49837;57.280;27.070;2023-05-18T01:50:17;12.3;;;2.6;;
63690;SDS011;49837;57.280;27.070;2023-05-18T01:51:19;7.8;;;2.2;;
63690;SDS011;49837;57.280;27.070;2023-05-18T01:52:23;8.7;;;2.8;;
63690;SDS011;49837;57.280;27.070;2023-05-18T01:53:26;10.8;;;2.7;;
63690;SDS011;49837;57.280;27.070;2023-05-18T01:54:23;10.4;;;2.8;;
63690;SDS011;49837;57.280;27.070;2023-05-18T01:55:24;6.7;;;2.7;;
63690;SDS011;49837;57.280;27.070;2023-05-18T01:56:25;8.8;;;2.3;;
63690;SDS011;49837;57.280;27.070;2023-05-18T01:57:26;12.0;;;2.2;;
63690;SDS011;49837;57.280;27.070;2023-05-18T01:58:26;9.5;;;2.5;;
63690;SDS011;49837;57.280;27.070;2023-05-18T01:59:28;9.2;;;2.5;;
63690;SDS011;49837;57.280;27.070;2023-05-18T02:00:27;10.7;;;2.8;;
63690;SDS011;49837;57.280;27.070;2023-05-18T02:01:28;7.1;;;2.2;;
63690;SDS011;49837;57.280;27.070;2023-05-18T02:02:28;10.1;;;2.8;;
63690;SDS011;49837;57.280;27.070;2023-05-18T02:03:30;8.6;;;2.5;;
63690;SDS011;49837;57.280;27.070;2023-05-18T02:04:29;9.6;;;2.1;;
63690;SDS011;49837;57.280;27.070;2023-05-18T02:05:29;8.9;;;2.2;;
63690;SDS011;49837;57.280;27.070;2023-05-18T02:06:30;7.9;;;2.2;;
63690;SDS011;49837;57.280;27.070;2023-05-18T02:07:30;8.1;;;2.5;;
63690;SDS011;49837;57.280;27.070;2023-05-18T02:08:30;12.4;;;2.8;;
63690;SDS011;49837;57.280;27.070;2023-05-18T02:09:31;11.7;;;2.6;;
63690;SDS011;49837;57.280;27.070;2023-05-18T02:10:31;7.8;;;2.9;;
63690;SDS011;49837;57.280;27.070;2023-05-18T02:11:31;8.5;;;2.4;;
63690;SDS011;49837;57.280;27.070;2023-05-18T02:12:32;11.3;;;3.1;;
63690;SDS011;49837;57.280;27.070;2023-05-18T02:13:32;12.7;;;2.6;;
63690;SDS011;49837;57.280;27.070;2023-05-18T02:14:33;13.0;;;2.6;;
63690;SDS011;49837;57.280;27.070;2023-05-18T02:15:33;10.6;;;2.4;;
63690;SDS011;49837;57.280;27.070;2023-05-18T02:16:33;8.5;;;2.8;;
63690;SDS011;49837;57.280;27.070;2023-05-18T02:17:34;11.5;;;2.7;;
63690;SDS011;49837;57.280;27.070;2023-05-18T02:18:34;12.2;;;2.8;;
63690;SDS011;49837;57.280;27.070;2023-05-18T02:19:35;9.7;;;2.4;;
63690;SDS011;49837;57.280;27.070;2023-05-18T02:20:35;10.3;;;2.8;;
63690;SDS011;49837;57.280;27.070;2023-05-18T02:21:35;11.3;;;2.4;;
63690;SDS011;49837;57.280;27.070;2023-05-18T02:22:36;11.3;;;2.6;;
63690;SDS011;49837;57.280;27.070;2023-05-18T02:23:36;9.2;;;2.3;;
63690;SDS011;49837;57.280;27.070;2023-05-18T02:24:36;15.4;;;3.0;;
63690;SDS011;49837;57.280;27.070;2023-05-18T02:25:37;10.5;;;2.7;;
63690;SDS011;49837;57.280;27.070;2023-05-18T02:26:37;12.9;;;2.7;;
63690;SDS011;49837;57.280;27.070;2023-05-18T02:27:38;8.9;;;2.3;;
63690;SDS011;49837;57.280;27.070;2023-05-18T02:28:38;8.4;;;2.6;;
63690;SDS011;49837;57.280;27.070;2023-05-18T02:29:38;8.7;;;2.4;;
63690;SDS011;49837;57.280;27.070;2023-05-18T02:30:41;11.3;;;2.3;;
63690;SDS011;49837;57.280;27.070;2023-05-18T02:31:39;9.5;;;2.4;;
63690;SDS011;49837;57.280;27.070;2023-05-18T02:32:40;14.6;;;2.4;;
63690;SDS011;49837;57.280;27.070;2023-05-18T02:33:40;11.8;;;2.4;;
63690;SDS011;49837;57.280;27.070;2023-05-18T02:34:40;9.6;;;2.5;;
63690;SDS011;49837;57.280;27.070;2023-05-18T02:35:41;11.2;;;3.6;;
63690;SDS011;49837;57.280;27.070;2023-05-18T02:36:41;9.5;;;2.5;;
63690;SDS011;49837;57.280;27.070;2023-05-18T02:37:41;10.1;;;2.2;;
63690;SDS011;49837;57.280;27.070;2023-05-18T02:38:42;9.2;;;2.6;;
63690;SDS011;49837;57.280;27.070;2023-05-18T02:39:42;10.8;;;2.7;;
63690;SDS011;49837;57.280;27.070;2023-05-18T02:40:43;11.9;;;2.7;;
63690;SDS011;49837;57.280;27.070;2023-05-18T02:41:43;8.9;;;2.2;;
63690;SDS011;49837;57.280;27.070;2023-05-18T02:42:43;8.6;;;2.3;;
63690;SDS011;49837;57.280;27.070;2023-05-18T02:43:44;9.8;;;2.4;;
63690;SDS011;49837;57.280;27.070;2023-05-18T02:44:44;11.0;;;2.1;;
63690;SDS011;49837;57.280;27.070;2023-05-18T02:45:44;9.2;;;2.7;;
63690;SDS011;49837;57.280;27.070;2023-05-18T02:46:45;6.4;;;1.9;;
63690;SDS011;49837;57.280;27.070;2023-05-18T02:47:45;9.9;;;2.5;;
63690;SDS011;49837;57.280;27.070;2023-05-18T02:48:46;7.7;;;2.4;;
63690;SDS011;49837;57.280;27.070;2023-05-18T02:49:46;8.1;;;2.2;;
63690;SDS011;49837;57.280;27.070;2023-05-18T02:50:49;11.6;;;2.9;;
63690;SDS011;49837;57.280;27.070;2023-05-18T02:51:47;9.6;;;2.5;;
63690;SDS011;49837;57.280;27.070;2023-05-18T02:52:47;10.0;;;2.2;;
63690;SDS011;49837;57.280;27.070;2023-05-18T02:53:48;10.8;;;2.3;;
63690;SDS011;49837;57.280;27.070;2023-05-18T02:54:48;7.3;;;2.0;;
63690;SDS011;49837;57.280;27.070;2023-05-18T02:55:53;9.8;;;2.5;;
63690;SDS011;49837;57.280;27.070;2023-05-18T02:56:51;9.3;;;2.6;;
63690;SDS011;49837;57.280;27.070;2023-05-18T02:57:51;11.0;;;2.5;;
63690;SDS011;49837;57.280;27.070;2023-05-18T02:58:52;14.5;;;3.4;;
63690;SDS011;49837;57.280;27.070;2023-05-18T02:59:52;9.0;;;2.5;;
63690;SDS011;49837;57.280;27.070;2023-05-18T03:00:53;11.1;;;2.1;;
63690;SDS011;49837;57.280;27.070;2023-05-18T03:01:54;8.6;;;2.2;;
63690;SDS011;49837;57.280;27.070;2023-05-18T03:02:54;10.0;;;2.2;;
63690;SDS011;49837;57.280;27.070;2023-05-18T03:03:55;9.7;;;2.5;;
63690;SDS011;49837;57.280;27.070;2023-05-18T03:04:55;7.6;;;2.0;;
63690;SDS011;49837;57.280;27.070;2023-05-18T03:05:55;10.2;;;2.7;;
63690;SDS011;49837;57.280;27.070;2023-05-18T03:06:57;11.0;;;2.3;;
63690;SDS011;49837;57.280;27.070;2023-05-18T03:07:56;6.8;;;2.7;;
63690;SDS011;49837;57.280;27.070;2023-05-18T03:08:56;10.8;;;2.5;;
63690;SDS011;49837;57.280;27.070;2023-05-18T03:09:56;9.7;;;2.8;;
63690;SDS011;49837;57.280;27.070;2023-05-18T03:10:57;7.7;;;2.2;;
63690;SDS011;49837;57.280;27.070;2023-05-18T03:12:00;13.0;;;2.4;;
63690;SDS011;49837;57.280;27.070;2023-05-18T03:12:58;9.8;;;2.1;;
63690;SDS011;49837;57.280;27.070;2023-05-18T03:13:58;7.9;;;2.1;;
63690;SDS011;49837;57.280;27.070;2023-05-18T03:14:58;11.1;;;2.5;;
63690;SDS011;49837;57.280;27.070;2023-05-18T03:16:02;9.8;;;2.9;;
63690;SDS011;49837;57.280;27.070;2023-05-18T03:16:59;10.6;;;2.3;;
63690;SDS011;49837;57.280;27.070;2023-05-18T03:18:00;11.9;;;3.1;;
63690;SDS011;49837;57.280;27.070;2023-05-18T03:19:00;10.1;;;2.7;;
63690;SDS011;49837;57.280;27.070;2023-05-18T03:20:01;9.5;;;2.6;;
63690;SDS011;49837;57.280;27.070;2023-05-18T03:21:01;10.8;;;2.8;;
63690;SDS011;49837;57.280;27.070;2023-05-18T03:22:01;13.2;;;2.3;;
63690;SDS011;49837;57.280;27.070;2023-05-18T03:23:02;11.1;;;2.4;;
63690;SDS011;49837;57.280;27.070;2023-05-18T03:24:02;8.8;;;2.5;;
63690;SDS011;49837;57.280;27.070;2023-05-18T03:25:03;7.8;;;2.1;;
63690;SDS011;49837;57.280;27.070;2023-05-18T03:26:03;9.8;;;2.6;;
63690;SDS011;49837;57.280;27.070;2023-05-18T03:27:03;8.4;;;2.7;;
63690;SDS011;49837;57.280;27.070;2023-05-18T03:28:04;9.9;;;2.4;;
63690;SDS011;49837;57.280;27.070;2023-05-18T03:29:04;10.2;;;2.2;;
63690;SDS011;49837;57.280;27.070;2023-05-18T03:30:05;6.2;;;2.1;;
63690;SDS011;49837;57.280;27.070;2023-05-18T03:31:05;9.1;;;2.6;;
63690;SDS011;49837;57.280;27.070;2023-05-18T03:32:05;10.0;;;2.6;;
63690;SDS011;49837;57.280;27.070;2023-05-18T03:33:06;8.2;;;2.3;;
63690;SDS011;49837;57.280;27.070;2023-05-18T03:34:06;10.6;;;2.3;;
63690;SDS011;49837;57.280;27.070;2023-05-18T03:35:06;9.7;;;2.3;;
63690;SDS011;49837;57.280;27.070;2023-05-18T03:36:07;7.7;;;2.3;;
63690;SDS011;49837;57.280;27.070;2023-05-18T03:37:07;6.6;;;2.0;;
63690;SDS011;49837;57.280;27.070;2023-05-18T03:38:08;8.8;;;2.5;;
63690;SDS011;49837;57.280;27.070;2023-05-18T03:39:08;13.7;;;2.6;;
63690;SDS011;49837;57.280;27.070;2023-05-18T03:40:10;10.5;;;2.7;;
63690;SDS011;49837;57.280;27.070;2023-05-18T03:41:09;9.1;;;2.5;;
63690;SDS011;49837;57.280;27.070;2023-05-18T03:42:09;11.5;;;2.8;;
63690;SDS011;49837;57.280;27.070;2023-05-18T03:43:09;9.9;;;2.6;;
63690;SDS011;49837;57.280;27.070;2023-05-18T03:44:10;8.8;;;2.5;;
63690;SDS011;49837;57.280;27.070;2023-05-18T03:45:10;10.8;;;2.8;;
63690;SDS011;49837;57.280;27.070;2023-05-18T03:46:11;10.3;;;2.6;;
63690;SDS011;49837;57.280;27.070;2023-05-18T03:47:14;11.4;;;2.8;;
63690;SDS011;49837;57.280;27.070;2023-05-18T03:48:11;9.5;;;2.6;;
63690;SDS011;49837;57.280;27.070;2023-05-18T03:49:12;7.2;;;2.1;;
63690;SDS011;49837;57.280;27.070;2023-05-18T03:50:12;6.9;;;2.0;;
63690;SDS011;49837;57.280;27.070;2023-05-18T03:51:13;7.7;;;2.4;;
63690;SDS011;49837;57.280;27.070;2023-05-18T03:52:13;9.3;;;2.4;;
63690;SDS011;49837;57.280;27.070;2023-05-18T03:53:13;7.5;;;2.5;;
63690;SDS011;49837;57.280;27.070;2023-05-18T03:54:14;11.1;;;2.4;;
63690;SDS011;49837;57.280;27.070;2023-05-18T03:55:14;8.7;;;2.4;;
63690;SDS011;49837;57.280;27.070;2023-05-18T03:56:14;7.8;;;2.2;;
63690;SDS011;49837;57.280;27.070;2023-05-18T03:57:15;9.0;;;2.5;;
63690;SDS011;49837;57.280;27.070;2023-05-18T03:58:15;9.0;;;2.2;;
63690;SDS011;49837;57.280;27.070;2023-05-18T03:59:16;8.3;;;2.8;;
63690;SDS011;49837;57.280;27.070;2023-05-18T04:00:16;9.0;;;2.3;;
63690;SDS011;49837;57.280;27.070;2023-05-18T04:01:18;9.4;;;2.2;;
63690;SDS011;49837;57.280;27.070;2023-05-18T04:02:17;12.0;;;2.7;;
63690;SDS011;49837;57.280;27.070;2023-05-18T04:03:17;7.3;;;2.6;;
63690;SDS011;49837;57.280;27.070;2023-05-18T04:04:18;8.4;;;2.2;;
63690;SDS011;49837;57.280;27.070;2023-05-18T04:05:19;8.5;;;2.4;;
63690;SDS011;49837;57.280;27.070;2023-05-18T04:06:18;11.3;;;2.2;;
63690;SDS011;49837;57.280;27.070;2023-05-18T04:07:19;9.4;;;2.5;;
63690;SDS011;49837;57.280;27.070;2023-05-18T04:08:22;8.8;;;2.1;;
63690;SDS011;49837;57.280;27.070;2023-05-18T04:09:19;11.8;;;2.6;;
63690;SDS011;49837;57.280;27.070;2023-05-18T04:10:20;7.4;;;2.2;;
63690;SDS011;49837;57.280;27.070;2023-05-18T04:11:20;8.7;;;2.4;;
63690;SDS011;49837;57.280;27.070;2023-05-18T04:12:21;10.2;;;2.5;;
63690;SDS011;49837;57.280;27.070;2023-05-18T04:13:21;9.2;;;2.2;;
63690;SDS011;49837;57.280;27.070;2023-05-18T04:14:21;9.5;;;2.5;;
63690;SDS011;49837;57.280;27.070;2023-05-18T04:15:22;9.6;;;2.3;;
63690;SDS011;49837;57.280;27.070;2023-05-18T04:16:22;9.5;;;2.3;;
63690;SDS011;49837;57.280;27.070;2023-05-18T04:17:23;7.8;;;1.8;;
63690;SDS011;49837;57.280;27.070;2023-05-18T04:18:23;7.5;;;2.1;;
63690;SDS011;49837;57.280;27.070;2023-05-18T04:19:23;8.1;;;2.0;;
63690;SDS011;49837;57.280;27.070;2023-05-18T04:20:24;7.3;;;2.4;;
63690;SDS011;49837;57.280;27.070;2023-05-18T04:21:24;9.2;;;2.0;;
63690;SDS011;49837;57.280;27.070;2023-05-18T04:22:25;10.9;;;2.2;;
63690;SDS011;49837;57.280;27.070;2023-05-18T04:23:25;6.0;;;2.0;;
63690;SDS011;49837;57.280;27.070;2023-05-18T04:24:25;8.3;;;1.9;;
63690;SDS011;49837;57.280;27.070;2023-05-18T04:25:26;7.7;;;2.0;;
63690;SDS011;49837;57.280;27.070;2023-05-18T04:26:27;8.1;;;2.0;;
63690;SDS011;49837;57.280;27.070;2023-05-18T04:27:27;6.7;;;1.5;;
63690;SDS011;49837;57.280;27.070;2023-05-18T04:28:28;9.1;;;2.4;;
63690;SDS011;49837;57.280;27.070;2023-05-18T04:29:28;7.9;;;1.9;;
63690;SDS011;49837;57.280;27.070;2023-05-18T04:30:31;6.1;;;2.0;;
63690;SDS011;49837;57.280;27.070;2023-05-18T04:31:29;8.8;;;1.9;;
63690;SDS011;49837;57.280;27.070;2023-05-18T04:32:29;5.8;;;2.1;;
63690;SDS011;49837;57.280;27.070;2023-05-18T04:33:29;5.7;;;1.7;;
63690;SDS011;49837;57.280;27.070;2023-05-18T04:34:30;6.3;;;1.9;;
63690;SDS011;49837;57.280;27.070;2023-05-18T04:35:30;9.6;;;2.2;;
63690;SDS011;49837;57.280;27.070;2023-05-18T04:36:31;8.2;;;1.8;;
63690;SDS011;49837;57.280;27.070;2023-05-18T04:37:32;7.3;;;1.9;;
63690;SDS011;49837;57.280;27.070;2023-05-18T04:38:32;7.0;;;2.1;;
63690;SDS011;49837;57.280;27.070;2023-05-18T04:39:32;6.9;;;2.0;;
63690;SDS011;49837;57.280;27.070;2023-05-18T04:40:32;11.5;;;2.1;;
63690;SDS011;49837;57.280;27.070;2023-05-18T04:41:33;8.1;;;2.0;;
63690;SDS011;49837;57.280;27.070;2023-05-18T04:42:33;6.9;;;1.8;;
63690;SDS011;49837;57.280;27.070;2023-05-18T04:43:33;4.7;;;1.7;;
63690;SDS011;49837;57.280;27.070;2023-05-18T04:44:34;6.9;;;2.0;;
63690;SDS011;49837;57.280;27.070;2023-05-18T04:45:35;4.4;;;1.4;;
63690;SDS011;49837;57.280;27.070;2023-05-18T04:46:35;5.9;;;1.6;;
63690;SDS011;49837;57.280;27.070;2023-05-18T04:47:35;7.9;;;1.6;;
63690;SDS011;49837;57.280;27.070;2023-05-18T04:48:35;5.7;;;1.7;;
63690;SDS011;49837;57.280;27.070;2023-05-18T04:49:36;3.1;;;1.3;;
63690;SDS011;49837;57.280;27.070;2023-05-18T04:50:37;3.3;;;1.9;;
63690;SDS011;49837;57.280;27.070;2023-05-18T04:51:37;3.8;;;1.2;;
63690;SDS011;49837;57.280;27.070;2023-05-18T04:52:37;4.3;;;1.2;;
63690;SDS011;49837;57.280;27.070;2023-05-18T04:53:37;3.1;;;1.2;;
63690;SDS011;49837;57.280;27.070;2023-05-18T04:54:38;2.9;;;1.2;;
63690;SDS011;49837;57.280;27.070;2023-05-18T04:55:38;4.6;;;1.2;;
63690;SDS011;49837;57.280;27.070;2023-05-18T04:56:39;3.8;;;1.2;;
63690;SDS011;49837;57.280;27.070;2023-05-18T04:57:39;2.7;;;1.0;;
63690;SDS011;49837;57.280;27.070;2023-05-18T04:58:39;3.9;;;1.0;;
63690;SDS011;49837;57.280;27.070;2023-05-18T04:59:40;2.6;;;1.2;;
63690;SDS011;49837;57.280;27.070;2023-05-18T05:00:40;4.8;;;1.4;;
63690;SDS011;49837;57.280;27.070;2023-05-18T05:01:41;3.9;;;1.5;;
63690;SDS011;49837;57.280;27.070;2023-05-18T05:02:41;2.8;;;0.8;;
63690;SDS011;49837;57.280;27.070;2023-05-18T05:03:41;2.1;;;0.9;;
63690;SDS011;49837;57.280;27.070;2023-05-18T05:04:42;3.1;;;1.3;;
63690;SDS011;49837;57.280;27.070;2023-05-18T05:05:43;4.0;;;1.0;;
63690;SDS011;49837;57.280;27.070;2023-05-18T05:06:43;3.5;;;1.1;;
63690;SDS011;49837;57.280;27.070;2023-05-18T05:07:43;2.5;;;1.1;;
63690;SDS011;49837;57.280;27.070;2023-05-18T05:08:43;3.9;;;1.3;;
63690;SDS011;49837;57.280;27.070;2023-05-18T05:09:44;11.4;;;2.0;;
63690;SDS011;49837;57.280;27.070;2023-05-18T05:10:44;4.7;;;1.3;;
63690;SDS011;49837;57.280;27.070;2023-05-18T05:11:45;3.5;;;1.1;;
63690;SDS011;49837;57.280;27.070;2023-05-18T05:12:45;4.2;;;1.3;;
63690;SDS011;49837;57.280;27.070;2023-05-18T05:13:45;3.8;;;0.9;;
63690;SDS011;49837;57.280;27.070;2023-05-18T05:14:46;4.2;;;1.0;;
63690;SDS011;49837;57.280;27.070;2023-05-18T05:15:49;7.6;;;1.2;;
63690;SDS011;49837;57.280;27.070;2023-05-18T05:16:47;3.5;;;1.2;;
63690;SDS011;49837;57.280;27.070;2023-05-18T05:17:47;4.8;;;1.5;;
63690;SDS011;49837;57.280;27.070;2023-05-18T05:18:47;4.9;;;1.2;;
63690;SDS011;49837;57.280;27.070;2023-05-18T05:19:48;4.1;;;1.1;;
63690;SDS011;49837;57.280;27.070;2023-05-18T05:20:48;3.6;;;1.2;;
63690;SDS011;49837;57.280;27.070;2023-05-18T05:21:49;3.4;;;1.4;;
63690;SDS011;49837;57.280;27.070;2023-05-18T05:22:49;2.6;;;0.8;;
63690;SDS011;49837;57.280;27.070;2023-05-18T05:23:49;4.1;;;1.3;;
63690;SDS011;49837;57.280;27.070;2023-05-18T05:24:50;3.6;;;1.2;;
63690;SDS011;49837;57.280;27.070;2023-05-18T05:25:50;2.7;;;1.1;;
63690;SDS011;49837;57.280;27.070;2023-05-18T05:26:51;2.2;;;0.9;;
63690;SDS011;49837;57.280;27.070;2023-05-18T05:27:51;2.1;;;1.0;;
63690;SDS011;49837;57.280;27.070;2023-05-18T05:28:51;4.8;;;1.2;;
63690;SDS011;49837;57.280;27.070;2023-05-18T05:29:52;5.7;;;1.8;;
63690;SDS011;49837;57.280;27.070;2023-05-18T05:30:52;5.4;;;1.7;;
63690;SDS011;49837;57.280;27.070;2023-05-18T05:31:53;3.5;;;1.0;;
63690;SDS011;49837;57.280;27.070;2023-05-18T05:32:53;3.9;;;1.1;;
63690;SDS011;49837;57.280;27.070;2023-05-18T05:33:54;3.6;;;1.2;;
63690;SDS011;49837;57.280;27.070;2023-05-18T05:34:54;2.4;;;1.3;;
63690;SDS011;49837;57.280;27.070;2023-05-18T05:35:54;4.1;;;0.9;;
63690;SDS011;49837;57.280;27.070;2023-05-18T05:36:55;2.8;;;1.4;;
63690;SDS011;49837;57.280;27.070;2023-05-18T05:37:55;17.2;;;1.9;;
63690;SDS011;49837;57.280;27.070;2023-05-18T05:38:56;3.1;;;1.2;;
63690;SDS011;49837;57.280;27.070;2023-05-18T05:39:56;4.2;;;1.6;;
63690;SDS011;49837;57.280;27.070;2023-05-18T05:40:56;5.5;;;0.9;;
63690;SDS011;49837;57.280;27.070;2023-05-18T05:41:57;4.6;;;1.1;;
63690;SDS011;49837;57.280;27.070;2023-05-18T05:42:57;3.8;;;1.1;;
63690;SDS011;49837;57.280;27.070;2023-05-18T05:43:58;8.0;;;1.6;;
63690;SDS011;49837;57.280;27.070;2023-05-18T05:44:58;3.2;;;1.3;;
63690;SDS011;49837;57.280;27.070;2023-05-18T05:45:58;5.2;;;1.3;;
63690;SDS011;49837;57.280;27.070;2023-05-18T05:46:59;13.6;;;1.6;;
63690;SDS011;49837;57.280;27.070;2023-05-18T05:47:59;4.9;;;1.2;;
63690;SDS011;49837;57.280;27.070;2023-05-18T05:49:00;5.3;;;1.8;;
63690;SDS011;49837;57.280;27.070;2023-05-18T05:50:00;9.2;;;2.1;;
63690;SDS011;49837;57.280;27.070;2023-05-18T05:51:00;2.2;;;0.8;;
63690;SDS011;49837;57.280;27.070;2023-05-18T05:52:01;3.8;;;1.1;;
63690;SDS011;49837;57.280;27.070;2023-05-18T05:53:10;7.1;;;1.6;;
63690;SDS011;49837;57.280;27.070;2023-05-18T05:54:05;9.2;;;1.6;;
63690;SDS011;49837;57.280;27.070;2023-05-18T05:55:06;61.5;;;5.3;;
63690;SDS011;49837;57.280;27.070;2023-05-18T05:56:06;5.4;;;1.1;;
63690;SDS011;49837;57.280;27.070;2023-05-18T05:57:07;2.7;;;1.1;;
63690;SDS011;49837;57.280;27.070;2023-05-18T05:58:07;1.8;;;0.9;;
63690;SDS011;49837;57.280;27.070;2023-05-18T05:59:08;2.6;;;0.9;;
63690;SDS011;49837;57.280;27.070;2023-05-18T06:00:09;3.9;;;0.8;;
63690;SDS011;49837;57.280;27.070;2023-05-18T06:01:14;4.2;;;1.0;;
63690;SDS011;49837;57.280;27.070;2023-05-18T06:02:10;2.6;;;0.8;;
63690;SDS011;49837;57.280;27.070;2023-05-18T06:03:10;3.3;;;0.9;;
63690;SDS011;49837;57.280;27.070;2023-05-18T06:04:10;2.1;;;1.0;;
63690;SDS011;49837;57.280;27.070;2023-05-18T06:05:11;5.2;;;1.0;;
63690;SDS011;49837;57.280;27.070;2023-05-18T06:06:12;4.0;;;1.0;;
63690;SDS011;49837;57.280;27.070;2023-05-18T06:07:12;7.9;;;4.4;;
63690;SDS011;49837;57.280;27.070;2023-05-18T06:08:12;2.9;;;0.8;;
63690;SDS011;49837;57.280;27.070;2023-05-18T06:09:12;3.7;;;1.3;;
63690;SDS011;49837;57.280;27.070;2023-05-18T06:10:13;2.9;;;1.0;;
63690;SDS011;49837;57.280;27.070;2023-05-18T06:11:16;4.3;;;1.1;;
63690;SDS011;49837;57.280;27.070;2023-05-18T06:12:16;6.7;;;1.4;;
63690;SDS011;49837;57.280;27.070;2023-05-18T06:13:17;3.9;;;1.1;;